Saga Pearl II — 9HA2950 — position and weather

sailwx.info

Track history (hours):
 
Tides and Currents Weather Stations Pressure Air Temp Water Temp Dewpoint Dewpoint Depression Visibility Wind Speed Wind Dir Waves Ship Positions

Saga Pearl II

Last reported at 2017-Mar-24 10:00 UTC. Time now 2017-Mar-24 12:20 UTC.
Position N 43°42' W 009°42'.

Length 165 m; draft 6.4 m.

Type: Ship. MMSI: 256878000.

Wind from 080 at 16 knots

Barometer 1014.8 mb
Air temperature 11.4 ° C
Visibility: greater than 10.8 NM
Dewpoint 5.6 ° C

Date/timePositionNaut miles runAvg speedWind from/ knotsBaromVisibWave heightAir tempDewpointWater temp
2017-Mar-24 10:00N 43°42' W 009°42'14015.6 080 / 161014.810.8 11.4 5.6
2017-Mar-24 01:00N 45°42' W 008°00'4916.3 090 / 91013.210.8 9.5 3.813.9
2017-Mar-23 22:00N 46°24' W 007°24'13016.3 030 / 151013.010.8 10.0 5.614.1
2017-Mar-23 14:00N 48°12' W 005°36'1315.7 030 / 221011.110.8 12.0 5.113.3
2017-Mar-23 13:09N 48°25' W 005°30'915.8
2017-Mar-23 12:34N 48°32' W 005°22'713.1
2017-Mar-23 12:00N 48°36' W 005°12'819.4 020 / 201011.210.8 11.8 4.5
2017-Mar-23 11:34N 48°43' W 005°06'9515.9
2017-Mar-23 05:34N 49°46' W 003°16'1615.6
2017-Mar-23 04:34N 49°57' W 002°58'3314.9
2017-Mar-23 02:22N 50°05' W 002°09'1214.9
2017-Mar-23 01:33N 50°09' W 001°51'1017.6
2017-Mar-23 01:00N 50°12' W 001°36'613.3 060 / 131009.610.8 8.4 5.311.8
2017-Mar-23 00:34N 50°15' W 001°28'2616.5
2017-Mar-22 23:00N 50°18' W 000°48'1218.2 070 / 181009.310.8 7.8 5.611.8
2017-Mar-22 22:19N 50°24' W 000°31'1317.0
2017-Mar-22 21:33N 50°27' W 000°12'1916.6
2017-Mar-22 20:25N 50°32' E 000°17'1516.1
2017-Mar-22 19:28N 50°38' E 000°39'2915.4
2017-Mar-22 17:33N 50°58' E 001°14'10 0.9
2017-Mar-22 06:33N 51°07' E 001°19'9 9.4
2017-Mar-22 05:34N 51°05' E 001°34'1615.0
2017-Mar-22 04:30N 50°50' E 001°23'3913.1
2017-Mar-22 01:31N 50°27' E 000°34'1019.6
2017-Mar-22 01:00N 50°24' E 000°18'4 8.1 180 / 411008.310.8 8.9 3.111.9
2017-Mar-22 00:34N 50°23' E 000°13'1414.1
2017-Mar-21 23:33N 50°19' W 000°08'916.1
2017-Mar-21 23:00N 50°12' W 000°18'2013.9 180 / 61009.210.8 9.0 1.812.0
2017-Mar-21 21:33N 50°11' W 000°49'1313.0
2017-Mar-21 20:33N 50°07' W 001°09'1312.7
2017-Mar-21 19:33N 50°04' W 001°28'1312.7
2017-Mar-21 18:34N 50°01' W 001°47'3413.5
2017-Mar-21 16:04N 49°53' W 002°38'816.5
2017-Mar-21 15:33N 49°51' W 002°50'1616.4
2017-Mar-21 14:33N 49°49' W 003°16'5 9.5
2017-Mar-21 14:00N 49°48' W 003°24'1323.6 240 / 281011.910.8 10.5 2.912.6
2017-Mar-21 13:26N 49°49' W 003°45'1616.3
2017-Mar-21 12:26N 49°49' W 004°10'4813.9
2017-Mar-21 09:00N 49°48' W 005°24'4015.7 080 / 201013.010.8 9.6 3.412.2
2017-Mar-21 06:28N 50°19' W 006°02'2214.8
2017-Mar-21 05:00N 50°36' W 006°24'6215.9 270 / 271011.1 5.4 7.8 0.812.2
2017-Mar-21 01:03N 51°18' W 007°37'114.2
2017-Mar-21 01:00N 51°18' W 007°36'819.3 270 / 321009.710.8 6.5 1.211.9
2017-Mar-21 00:33N 51°24' W 007°46'1615.9
2017-Mar-20 23:33N 51°35' W 008°04'915.3
2017-Mar-20 23:00N 51°42' W 008°12'613.3 270 / 221008.110.8 3.8 2.611.9
2017-Mar-20 22:33N 51°47' W 008°16'4 3.8
2017-Mar-20 21:33N 51°51' W 008°18'0 0.0
2017-Mar-20 20:29N 51°51' W 008°18'0 0.0
2017-Mar-20 19:32N 51°51' W 008°18'0 0.0
2017-Mar-20 18:31N 51°51' W 008°18'0 0.0
2017-Mar-20 17:31N 51°51' W 008°18'0 0.1
2017-Mar-20 16:30N 51°51' W 008°18'0 0.0
2017-Mar-20 15:30N 51°51' W 008°18'0 0.0
2017-Mar-20 14:32N 51°51' W 008°18'0 0.1
2017-Mar-20 13:33N 51°51' W 008°18'0 0.0
2017-Mar-20 12:32N 51°51' W 008°18'0 0.2
2017-Mar-20 11:33N 51°51' W 008°18'8 7.9
2017-Mar-20 10:30N 51°43' W 008°14'1414.3
2017-Mar-20 09:33N 51°44' W 007°52'1615.3
2017-Mar-20 08:32N 51°47' W 007°28'1515.5
2017-Mar-20 07:33N 51°50' W 007°04'1515.3
2017-Mar-20 06:33N 51°56' W 006°40'1616.2
2017-Mar-20 05:33N 52°05' W 006°19'1616.0
2017-Mar-20 04:33N 52°17' W 006°02'5014.2
2017-Mar-20 01:00N 53°00' W 005°18'5213.9 210 / 201001.010.8 9.8 9.211.0
2017-Mar-19 21:15N 53°35' W 004°13'1116.0
2017-Mar-19 20:33N 53°35' W 003°54'1515.5
2017-Mar-19 19:33N 53°33' W 003°28'1212.4
2017-Mar-19 18:33N 53°31' W 003°07'8 7.5
2017-Mar-19 17:28N 53°24' W 003°00'0 0.0
2017-Mar-19 16:30N 53°24' W 003°00'0 0.0
2017-Mar-19 15:18N 53°24' W 003°00'0 0.0
2017-Mar-19 14:26N 53°24' W 003°00'0 0.0
2017-Mar-19 13:29N 53°24' W 003°00'0 0.0
2017-Mar-19 12:28N 53°24' W 003°00'0 0.0
2017-Mar-19 11:22N 53°24' W 003°00'0 0.0
2017-Mar-19 10:24N 53°24' W 003°00'0 0.0
2017-Mar-19 09:27N 53°24' W 003°00'0 0.0
2017-Mar-19 08:33N 53°24' W 003°00'0 0.3
2017-Mar-19 07:33N 53°25' W 003°00'5 5.1
2017-Mar-19 06:33N 53°29' W 003°05'10 9.7
2017-Mar-19 05:33N 53°32' W 003°20'1110.3
2017-Mar-19 04:32N 53°31' W 003°38'1010.6
2017-Mar-19 03:33N 53°29' W 003°55'83 1.6
2017-Mar-17 00:14N 52°42' W 005°48'1877.6
2017-Mar-17 00:00N 52°24' W 005°42'1123.7 270 / 231021.8 7.0 2.111.2
2017-Mar-16 23:33N 52°34' W 005°47'1111.2
2017-Mar-16 22:33N 52°23' W 005°45'10412.7
2017-Mar-16 14:23N 50°40' W 006°07'1127.1
2017-Mar-16 14:00N 50°30' W 006°00'3 6.6 250 / 141022.910.8 10.5 8.5
2017-Mar-16 13:30N 50°27' W 005°58'2814.4
2017-Mar-16 11:32N 49°59' W 005°50'1615.7
2017-Mar-16 10:33N 49°54' W 005°27'1615.8
2017-Mar-16 09:32N 49°52' W 005°03'1515.3
2017-Mar-16 08:33N 49°56' W 004°40'1515.2
2017-Mar-16 07:33N 49°59' W 004°17'1514.8
2017-Mar-16 06:34N 50°03' W 003°55'1615.8
2017-Mar-16 05:33N 50°06' W 003°31'1717.1
2017-Mar-16 04:33N 50°09' W 003°04'2218.6
2017-Mar-16 03:23N 50°13' W 002°31'1619.1
2017-Mar-16 02:33N 50°14' W 002°06'1917.9
2017-Mar-16 01:31N 50°17' W 001°38'1516.0
2017-Mar-16 00:33N 50°22' W 001°14'1414.4
2017-Mar-15 23:33N 50°24' W 000°52'5699.5
2017-Mar-15 23:00N 50°24' E 000°36'44100.9 270 / 41030.3 0.0 6.0 6.011.6
2017-Mar-15 22:33N 50°27' W 000°33'1413.7
2017-Mar-15 21:33N 50°31' W 000°12'1515.2
2017-Mar-15 20:33N 50°35' E 000°11'1716.6
2017-Mar-15 19:33N 50°40' E 000°36'1817.5
2017-Mar-15 18:33N 50°50' E 000°59'610.9
2017-Mar-15 18:00N 50°54' E 001°06'1024.0 250 / 91031.410.8 10.0 8.8
2017-Mar-15 17:33N 51°02' E 001°17'5 4.8
2017-Mar-15 16:31N 51°07' E 001°19'0 0.0
2017-Mar-15 15:31N 51°07' E 001°19'0 0.0
2017-Mar-15 14:30N 51°07' E 001°19'0 0.0
2017-Mar-15 13:24N 51°07' E 001°19'0 0.0
2017-Mar-15 10:32N 51°07' E 001°19'0 0.0
2017-Mar-15 08:31N 51°07' E 001°19'0 0.0
2017-Mar-15 07:21N 51°07' E 001°19'0 0.3
2017-Mar-15 06:32N 51°07' E 001°19'7 7.1
2017-Mar-15 05:33N 51°07' E 001°30'9 9.4
2017-Mar-15 04:33N 51°12' E 001°43'1010.0
2017-Mar-15 03:33N 51°21' E 001°50'10 9.6
2017-Mar-15 02:33N 51°29' E 001°59'1010.1
2017-Mar-15 01:33N 51°36' E 002°11'1110.9
2017-Mar-15 00:33N 51°44' E 002°22'  
Track history (hours):
 
Tides and Currents Weather Stations Pressure Air Temp Water Temp Dewpoint Dewpoint Depression Visibility Wind Speed Wind Dir Waves Ship Positions

Saga Pearl II

Last reported at 2017-Mar-24 10:00 UTC. Time now 2017-Mar-24 12:20 UTC.
Position N 43°42' W 009°42'.

Length 165 m; draft 6.4 m.

Type: Ship. MMSI: 256878000.

Wind from 080 at 16 knots

Barometer 1014.8 mb
Air temperature 11.4 ° C
Visibility: greater than 10.8 NM
Dewpoint 5.6 ° C

Date/timePositionNaut miles runAvg speedWind from/ knotsBaromVisibWave heightAir tempDewpointWater temp
2017-Mar-24 10:00N 43°42' W 009°42'14015.6 080 / 161014.810.8 11.4 5.6
2017-Mar-24 01:00N 45°42' W 008°00'4916.3 090 / 91013.210.8 9.5 3.813.9
2017-Mar-23 22:00N 46°24' W 007°24'13016.3 030 / 151013.010.8 10.0 5.614.1
2017-Mar-23 14:00N 48°12' W 005°36'1315.7 030 / 221011.110.8 12.0 5.113.3
2017-Mar-23 13:09N 48°25' W 005°30'915.8
2017-Mar-23 12:34N 48°32' W 005°22'713.1
2017-Mar-23 12:00N 48°36' W 005°12'819.4 020 / 201011.210.8 11.8 4.5
2017-Mar-23 11:34N 48°43' W 005°06'9515.9
2017-Mar-23 05:34N 49°46' W 003°16'1615.6
2017-Mar-23 04:34N 49°57' W 002°58'3314.9
2017-Mar-23 02:22N 50°05' W 002°09'1214.9
2017-Mar-23 01:33N 50°09' W 001°51'1017.6
2017-Mar-23 01:00N 50°12' W 001°36'613.3 060 / 131009.610.8 8.4 5.311.8
2017-Mar-23 00:34N 50°15' W 001°28'2616.5
2017-Mar-22 23:00N 50°18' W 000°48'1218.2 070 / 181009.310.8 7.8 5.611.8
2017-Mar-22 22:19N 50°24' W 000°31'1317.0
2017-Mar-22 21:33N 50°27' W 000°12'1916.6
2017-Mar-22 20:25N 50°32' E 000°17'1516.1
2017-Mar-22 19:28N 50°38' E 000°39'2915.4
2017-Mar-22 17:33N 50°58' E 001°14'10 0.9
2017-Mar-22 06:33N 51°07' E 001°19'9 9.4
2017-Mar-22 05:34N 51°05' E 001°34'1615.0
2017-Mar-22 04:30N 50°50' E 001°23'3913.1
2017-Mar-22 01:31N 50°27' E 000°34'1019.6
2017-Mar-22 01:00N 50°24' E 000°18'4 8.1 180 / 411008.310.8 8.9 3.111.9
2017-Mar-22 00:34N 50°23' E 000°13'1414.1
2017-Mar-21 23:33N 50°19' W 000°08'916.1
2017-Mar-21 23:00N 50°12' W 000°18'2013.9 180 / 61009.210.8 9.0 1.812.0
2017-Mar-21 21:33N 50°11' W 000°49'1313.0
2017-Mar-21 20:33N 50°07' W 001°09'1312.7
2017-Mar-21 19:33N 50°04' W 001°28'1312.7
2017-Mar-21 18:34N 50°01' W 001°47'3413.5
2017-Mar-21 16:04N 49°53' W 002°38'816.5
2017-Mar-21 15:33N 49°51' W 002°50'1616.4
2017-Mar-21 14:33N 49°49' W 003°16'5 9.5
2017-Mar-21 14:00N 49°48' W 003°24'1323.6 240 / 281011.910.8 10.5 2.912.6
2017-Mar-21 13:26N 49°49' W 003°45'1616.3
2017-Mar-21 12:26N 49°49' W 004°10'4813.9
2017-Mar-21 09:00N 49°48' W 005°24'4015.7 080 / 201013.010.8 9.6 3.412.2
2017-Mar-21 06:28N 50°19' W 006°02'2214.8
2017-Mar-21 05:00N 50°36' W 006°24'6215.9 270 / 271011.1 5.4 7.8 0.812.2
2017-Mar-21 01:03N 51°18' W 007°37'114.2
2017-Mar-21 01:00N 51°18' W 007°36'819.3 270 / 321009.710.8 6.5 1.211.9
2017-Mar-21 00:33N 51°24' W 007°46'1615.9
2017-Mar-20 23:33N 51°35' W 008°04'915.3
2017-Mar-20 23:00N 51°42' W 008°12'613.3 270 / 221008.110.8 3.8 2.611.9
2017-Mar-20 22:33N 51°47' W 008°16'4 3.8
2017-Mar-20 21:33N 51°51' W 008°18'0 0.0
2017-Mar-20 20:29N 51°51' W 008°18'0 0.0
2017-Mar-20 19:32N 51°51' W 008°18'0 0.0
2017-Mar-20 18:31N 51°51' W 008°18'0 0.0
2017-Mar-20 17:31N 51°51' W 008°18'0 0.1
2017-Mar-20 16:30N 51°51' W 008°18'0 0.0
2017-Mar-20 15:30N 51°51' W 008°18'0 0.0
2017-Mar-20 14:32N 51°51' W 008°18'0 0.1
2017-Mar-20 13:33N 51°51' W 008°18'0 0.0
2017-Mar-20 12:32N 51°51' W 008°18'0 0.2
2017-Mar-20 11:33N 51°51' W 008°18'8 7.9
2017-Mar-20 10:30N 51°43' W 008°14'1414.3
2017-Mar-20 09:33N 51°44' W 007°52'1615.3
2017-Mar-20 08:32N 51°47' W 007°28'1515.5
2017-Mar-20 07:33N 51°50' W 007°04'1515.3
2017-Mar-20 06:33N 51°56' W 006°40'1616.2
2017-Mar-20 05:33N 52°05' W 006°19'1616.0
2017-Mar-20 04:33N 52°17' W 006°02'5014.2
2017-Mar-20 01:00N 53°00' W 005°18'5213.9 210 / 201001.010.8 9.8 9.211.0
2017-Mar-19 21:15N 53°35' W 004°13'1116.0
2017-Mar-19 20:33N 53°35' W 003°54'1515.5
2017-Mar-19 19:33N 53°33' W 003°28'1212.4
2017-Mar-19 18:33N 53°31' W 003°07'8 7.5
2017-Mar-19 17:28N 53°24' W 003°00'0 0.0
2017-Mar-19 16:30N 53°24' W 003°00'0 0.0
2017-Mar-19 15:18N 53°24' W 003°00'0 0.0
2017-Mar-19 14:26N 53°24' W 003°00'0 0.0
2017-Mar-19 13:29N 53°24' W 003°00'0 0.0
2017-Mar-19 12:28N 53°24' W 003°00'0 0.0
2017-Mar-19 11:22N 53°24' W 003°00'0 0.0
2017-Mar-19 10:24N 53°24' W 003°00'0 0.0
2017-Mar-19 09:27N 53°24' W 003°00'0 0.0
2017-Mar-19 08:33N 53°24' W 003°00'0 0.3
2017-Mar-19 07:33N 53°25' W 003°00'5 5.1
2017-Mar-19 06:33N 53°29' W 003°05'10 9.7
2017-Mar-19 05:33N 53°32' W 003°20'1110.3
2017-Mar-19 04:32N 53°31' W 003°38'1010.6
2017-Mar-19 03:33N 53°29' W 003°55'83 1.6
2017-Mar-17 00:14N 52°42' W 005°48'1877.6
2017-Mar-17 00:00N 52°24' W 005°42'1123.7 270 / 231021.8 7.0 2.111.2
2017-Mar-16 23:33N 52°34' W 005°47'1111.2
2017-Mar-16 22:33N 52°23' W 005°45'10412.7
2017-Mar-16 14:23N 50°40' W 006°07'1127.1
2017-Mar-16 14:00N 50°30' W 006°00'3 6.6 250 / 141022.910.8 10.5 8.5
2017-Mar-16 13:30N 50°27' W 005°58'2814.4
2017-Mar-16 11:32N 49°59' W 005°50'1615.7
2017-Mar-16 10:33N 49°54' W 005°27'1615.8
2017-Mar-16 09:32N 49°52' W 005°03'1515.3
2017-Mar-16 08:33N 49°56' W 004°40'1515.2
2017-Mar-16 07:33N 49°59' W 004°17'1514.8
2017-Mar-16 06:34N 50°03' W 003°55'1615.8
2017-Mar-16 05:33N 50°06' W 003°31'1717.1
2017-Mar-16 04:33N 50°09' W 003°04'2218.6
2017-Mar-16 03:23N 50°13' W 002°31'1619.1
2017-Mar-16 02:33N 50°14' W 002°06'1917.9
2017-Mar-16 01:31N 50°17' W 001°38'1516.0
2017-Mar-16 00:33N 50°22' W 001°14'1414.4
2017-Mar-15 23:33N 50°24' W 000°52'5699.5
2017-Mar-15 23:00N 50°24' E 000°36'44100.9 270 / 41030.3 0.0 6.0 6.011.6
2017-Mar-15 22:33N 50°27' W 000°33'1413.7
2017-Mar-15 21:33N 50°31' W 000°12'1515.2
2017-Mar-15 20:33N 50°35' E 000°11'1716.6
2017-Mar-15 19:33N 50°40' E 000°36'1817.5
2017-Mar-15 18:33N 50°50' E 000°59'610.9
2017-Mar-15 18:00N 50°54' E 001°06'1024.0 250 / 91031.410.8 10.0 8.8
2017-Mar-15 17:33N 51°02' E 001°17'5 4.8
2017-Mar-15 16:31N 51°07' E 001°19'0 0.0
2017-Mar-15 15:31N 51°07' E 001°19'0 0.0
2017-Mar-15 14:30N 51°07' E 001°19'0 0.0
2017-Mar-15 13:24N 51°07' E 001°19'0 0.0
2017-Mar-15 10:32N 51°07' E 001°19'0 0.0
2017-Mar-15 08:31N 51°07' E 001°19'0 0.0
2017-Mar-15 07:21N 51°07' E 001°19'0 0.3
2017-Mar-15 06:32N 51°07' E 001°19'7 7.1
2017-Mar-15 05:33N 51°07' E 001°30'9 9.4
2017-Mar-15 04:33N 51°12' E 001°43'1010.0
2017-Mar-15 03:33N 51°21' E 001°50'10 9.6
2017-Mar-15 02:33N 51°29' E 001°59'1010.1
2017-Mar-15 01:33N 51°36' E 002°11'1110.9
2017-Mar-15 00:33N 51°44' E 002°22'  

Dump ship's entire track history